sensor_id;sensor_type;location;lat;lon;timestamp;pressure;altitude;pressure_sealevel;temperature;humidity
47080;BME280;33067;49.296;14.470;2023-01-28T00:01:18;97409.43;;;1.07;42.34
47080;BME280;33067;49.296;14.470;2023-01-28T00:03:47;97411.01;;;0.83;42.66
47080;BME280;33067;49.296;14.470;2023-01-28T00:06:12;97409.70;;;1.34;42.11
47080;BME280;33067;49.296;14.470;2023-01-28T00:08:35;97408.61;;;1.48;41.56
47080;BME280;33067;49.296;14.470;2023-01-28T00:11:02;97407.65;;;2.19;41.19
47080;BME280;33067;49.296;14.470;2023-01-28T00:13:27;97408.35;;;1.84;40.90
47080;BME280;33067;49.296;14.470;2023-01-28T00:15:54;97409.52;;;1.82;40.75
47080;BME280;33067;49.296;14.470;2023-01-28T00:18:16;97405.89;;;1.89;40.74
47080;BME280;33067;49.296;14.470;2023-01-28T00:20:42;97408.70;;;2.05;40.93
47080;BME280;33067;49.296;14.470;2023-01-28T00:23:08;97411.69;;;1.44;41.03
47080;BME280;33067;49.296;14.470;2023-01-28T00:25:34;97409.82;;;1.48;41.08
47080;BME280;33067;49.296;14.470;2023-01-28T00:27:59;97410.20;;;2.12;40.36
47080;BME280;33067;49.296;14.470;2023-01-28T00:30:25;97409.33;;;1.74;41.24
47080;BME280;33067;49.296;14.470;2023-01-28T00:32:52;97409.25;;;2.05;41.76
47080;BME280;33067;49.296;14.470;2023-01-28T00:35:16;97408.49;;;2.11;41.07
47080;BME280;33067;49.296;14.470;2023-01-28T00:37:44;97408.87;;;2.41;40.82
47080;BME280;33067;49.296;14.470;2023-01-28T00:40:09;97402.36;;;2.19;40.68
47080;BME280;33067;49.296;14.470;2023-01-28T00:42:33;97401.66;;;2.13;40.87
47080;BME280;33067;49.296;14.470;2023-01-28T00:44:59;97407.32;;;1.80;41.54
47080;BME280;33067;49.296;14.470;2023-01-28T00:47:26;97410.72;;;1.33;41.64
47080;BME280;33067;49.296;14.470;2023-01-28T00:49:50;97412.37;;;1.95;40.73
47080;BME280;33067;49.296;14.470;2023-01-28T00:52:16;97413.16;;;3.18;40.27
47080;BME280;33067;49.296;14.470;2023-01-28T00:54:41;97412.40;;;2.78;40.77
47080;BME280;33067;49.296;14.470;2023-01-28T00:57:07;97414.22;;;3.17;41.16
47080;BME280;33067;49.296;14.470;2023-01-28T00:59:32;97410.87;;;2.88;40.89
47080;BME280;33067;49.296;14.470;2023-01-28T01:01:58;97414.26;;;2.80;41.16
47080;BME280;33067;49.296;14.470;2023-01-28T01:04:23;97414.94;;;2.59;41.39
47080;BME280;33067;49.296;14.470;2023-01-28T01:06:48;97416.88;;;2.76;41.13
47080;BME280;33067;49.296;14.470;2023-01-28T01:09:13;97418.61;;;2.72;41.42
47080;BME280;33067;49.296;14.470;2023-01-28T01:11:39;97421.49;;;2.98;41.72
47080;BME280;33067;49.296;14.470;2023-01-28T01:14:04;97423.30;;;2.81;41.93
47080;BME280;33067;49.296;14.470;2023-01-28T01:16:30;97421.71;;;3.00;41.62
47080;BME280;33067;49.296;14.470;2023-01-28T01:18:55;97420.30;;;2.67;42.03
47080;BME280;33067;49.296;14.470;2023-01-28T01:21:23;97420.76;;;2.96;42.26
47080;BME280;33067;49.296;14.470;2023-01-28T01:23:46;97426.58;;;3.04;41.84
47080;BME280;33067;49.296;14.470;2023-01-28T01:26:12;97426.96;;;2.83;42.21
47080;BME280;33067;49.296;14.470;2023-01-28T01:28:36;97427.04;;;2.82;42.43
47080;BME280;33067;49.296;14.470;2023-01-28T01:31:05;97424.42;;;2.55;42.31
47080;BME280;33067;49.296;14.470;2023-01-28T01:33:27;97421.15;;;3.05;42.47
47080;BME280;33067;49.296;14.470;2023-01-28T01:35:53;97424.90;;;2.49;42.94
47080;BME280;33067;49.296;14.470;2023-01-28T01:38:17;97422.58;;;2.94;42.60
47080;BME280;33067;49.296;14.470;2023-01-28T01:40:43;97423.05;;;3.07;42.12
47080;BME280;33067;49.296;14.470;2023-01-28T01:43:15;97423.69;;;3.00;42.63
47080;BME280;33067;49.296;14.470;2023-01-28T01:45:34;97425.25;;;3.25;42.75
47080;BME280;33067;49.296;14.470;2023-01-28T01:48:03;97426.13;;;2.80;42.96
47080;BME280;33067;49.296;14.470;2023-01-28T01:50:29;97425.80;;;2.48;43.37
47080;BME280;33067;49.296;14.470;2023-01-28T01:52:53;97427.51;;;2.55;43.74
47080;BME280;33067;49.296;14.470;2023-01-28T01:55:18;97424.76;;;2.54;43.34
47080;BME280;33067;49.296;14.470;2023-01-28T01:57:41;97426.41;;;2.71;43.84
47080;BME280;33067;49.296;14.470;2023-01-28T02:00:07;97427.54;;;2.59;44.02
47080;BME280;33067;49.296;14.470;2023-01-28T02:02:35;97431.02;;;2.53;44.40
47080;BME280;33067;49.296;14.470;2023-01-28T02:04:57;97433.91;;;2.78;44.24
47080;BME280;33067;49.296;14.470;2023-01-28T02:07:22;97433.86;;;2.95;44.15
47080;BME280;33067;49.296;14.470;2023-01-28T02:09:47;97433.51;;;3.00;44.18
47080;BME280;33067;49.296;14.470;2023-01-28T02:12:16;97430.88;;;2.72;44.32
47080;BME280;33067;49.296;14.470;2023-01-28T02:14:43;97430.04;;;3.13;44.17
47080;BME280;33067;49.296;14.470;2023-01-28T02:17:04;97432.09;;;2.83;44.24
47080;BME280;33067;49.296;14.470;2023-01-28T02:19:35;97431.90;;;3.13;44.40
47080;BME280;33067;49.296;14.470;2023-01-28T02:22:03;97433.39;;;3.21;44.34
47080;BME280;33067;49.296;14.470;2023-01-28T02:26:55;97431.46;;;3.08;44.25
47080;BME280;33067;49.296;14.470;2023-01-28T02:29:16;97430.45;;;2.88;44.37
47080;BME280;33067;49.296;14.470;2023-01-28T02:31:41;97428.13;;;3.03;44.54
47080;BME280;33067;49.296;14.470;2023-01-28T02:34:07;97426.03;;;3.20;44.25
47080;BME280;33067;49.296;14.470;2023-01-28T02:36:33;97429.32;;;2.88;44.80
47080;BME280;33067;49.296;14.470;2023-01-28T02:38:53;97431.78;;;2.99;44.76
47080;BME280;33067;49.296;14.470;2023-01-28T02:41:22;97433.37;;;3.11;44.55
47080;BME280;33067;49.296;14.470;2023-01-28T02:43:44;97435.67;;;3.27;45.04
47080;BME280;33067;49.296;14.470;2023-01-28T02:46:17;97431.35;;;2.87;45.04
47080;BME280;33067;49.296;14.470;2023-01-28T02:48:33;97432.70;;;2.85;44.89
47080;BME280;33067;49.296;14.470;2023-01-28T02:51:02;97435.17;;;3.03;44.92
47080;BME280;33067;49.296;14.470;2023-01-28T02:53:29;97435.19;;;3.05;44.94
47080;BME280;33067;49.296;14.470;2023-01-28T02:55:54;97433.74;;;3.35;44.96
47080;BME280;33067;49.296;14.470;2023-01-28T02:58:19;97439.16;;;3.59;44.74
47080;BME280;33067;49.296;14.470;2023-01-28T03:00:48;97435.89;;;3.34;45.01
47080;BME280;33067;49.296;14.470;2023-01-28T03:03:14;97437.08;;;3.02;45.30
47080;BME280;33067;49.296;14.470;2023-01-28T03:05:35;97437.84;;;3.18;45.15
47080;BME280;33067;49.296;14.470;2023-01-28T03:07:59;97439.21;;;3.67;45.22
47080;BME280;33067;49.296;14.470;2023-01-28T03:13:01;97438.53;;;3.05;45.12
47080;BME280;33067;49.296;14.470;2023-01-28T03:15:29;97438.45;;;3.54;44.87
47080;BME280;33067;49.296;14.470;2023-01-28T03:17:56;97441.00;;;3.40;45.08
47080;BME280;33067;49.296;14.470;2023-01-28T03:20:18;97441.46;;;3.22;45.36
47080;BME280;33067;49.296;14.470;2023-01-28T03:22:46;97440.68;;;3.40;45.30
47080;BME280;33067;49.296;14.470;2023-01-28T03:25:10;97443.39;;;3.34;45.48
47080;BME280;33067;49.296;14.470;2023-01-28T03:27:39;97442.45;;;3.48;45.29
47080;BME280;33067;49.296;14.470;2023-01-28T03:30:02;97440.92;;;2.88;46.39
47080;BME280;33067;49.296;14.470;2023-01-28T03:32:25;97445.15;;;2.33;47.40
47080;BME280;33067;49.296;14.470;2023-01-28T03:34:51;97448.35;;;3.18;47.35
47080;BME280;33067;49.296;14.470;2023-01-28T03:37:16;97446.45;;;2.84;46.79
47080;BME280;33067;49.296;14.470;2023-01-28T03:39:41;97447.77;;;2.74;47.28
47080;BME280;33067;49.296;14.470;2023-01-28T03:42:08;97448.08;;;2.80;47.26
47080;BME280;33067;49.296;14.470;2023-01-28T03:44:32;97449.21;;;2.95;47.01
47080;BME280;33067;49.296;14.470;2023-01-28T03:46:57;97451.75;;;1.91;49.04
47080;BME280;33067;49.296;14.470;2023-01-28T03:49:23;97445.94;;;2.53;48.70
47080;BME280;33067;49.296;14.470;2023-01-28T03:51:48;97446.78;;;2.23;48.14
47080;BME280;33067;49.296;14.470;2023-01-28T03:54:14;97446.84;;;2.16;48.55
47080;BME280;33067;49.296;14.470;2023-01-28T03:56:40;97448.73;;;2.03;48.53
47080;BME280;33067;49.296;14.470;2023-01-28T03:59:06;97449.88;;;1.67;50.10
47080;BME280;33067;49.296;14.470;2023-01-28T04:01:32;97448.29;;;2.00;49.68
47080;BME280;33067;49.296;14.470;2023-01-28T04:03:57;97452.24;;;1.78;50.06
47080;BME280;33067;49.296;14.470;2023-01-28T04:06:23;97456.51;;;1.27;50.94
47080;BME280;33067;49.296;14.470;2023-01-28T04:08:48;97454.35;;;1.55;50.49
47080;BME280;33067;49.296;14.470;2023-01-28T04:11:14;97457.29;;;1.39;50.81
47080;BME280;33067;49.296;14.470;2023-01-28T04:13:39;97454.51;;;1.23;51.47
47080;BME280;33067;49.296;14.470;2023-01-28T04:16:04;97451.16;;;1.48;51.37
47080;BME280;33067;49.296;14.470;2023-01-28T04:18:29;97448.75;;;1.46;51.37
47080;BME280;33067;49.296;14.470;2023-01-28T04:20:55;97447.67;;;1.80;50.89
47080;BME280;33067;49.296;14.470;2023-01-28T04:23:20;97448.83;;;1.13;51.48
47080;BME280;33067;49.296;14.470;2023-01-28T04:25:49;97450.37;;;0.97;52.19
47080;BME280;33067;49.296;14.470;2023-01-28T04:28:11;97451.96;;;0.87;51.95
47080;BME280;33067;49.296;14.470;2023-01-28T04:30:36;97453.71;;;1.43;51.11
47080;BME280;33067;49.296;14.470;2023-01-28T04:33:02;97453.68;;;1.42;51.49
47080;BME280;33067;49.296;14.470;2023-01-28T04:35:27;97455.45;;;1.52;51.30
47080;BME280;33067;49.296;14.470;2023-01-28T04:37:52;97456.24;;;1.55;50.92
47080;BME280;33067;49.296;14.470;2023-01-28T04:40:18;97460.64;;;0.75;52.81
47080;BME280;33067;49.296;14.470;2023-01-28T04:42:51;97458.04;;;1.25;52.56
47080;BME280;33067;49.296;14.470;2023-01-28T04:45:09;97457.91;;;1.12;52.99
47080;BME280;33067;49.296;14.470;2023-01-28T04:47:33;97456.19;;;1.04;52.77
47080;BME280;33067;49.296;14.470;2023-01-28T04:49:59;97463.58;;;1.04;53.09
47080;BME280;33067;49.296;14.470;2023-01-28T04:52:24;97467.76;;;0.85;52.93
47080;BME280;33067;49.296;14.470;2023-01-28T04:54:49;97467.17;;;0.55;53.82
47080;BME280;33067;49.296;14.470;2023-01-28T04:57:15;97469.96;;;1.23;52.71
47080;BME280;33067;49.296;14.470;2023-01-28T04:59:42;97468.56;;;1.04;52.05
47080;BME280;33067;49.296;14.470;2023-01-28T05:02:07;97465.69;;;1.49;52.11
47080;BME280;33067;49.296;14.470;2023-01-28T05:04:31;97467.38;;;1.12;51.60
47080;BME280;33067;49.296;14.470;2023-01-28T05:06:57;97466.87;;;1.46;50.73
47080;BME280;33067;49.296;14.470;2023-01-28T05:09:22;97467.14;;;1.58;50.78
47080;BME280;33067;49.296;14.470;2023-01-28T05:11:47;97469.60;;;1.59;50.96
47080;BME280;33067;49.296;14.470;2023-01-28T05:14:13;97474.33;;;0.90;51.98
47080;BME280;33067;49.296;14.470;2023-01-28T05:16:39;97475.72;;;1.09;52.48
47080;BME280;33067;49.296;14.470;2023-01-28T05:19:03;97482.25;;;0.00;54.58
47080;BME280;33067;49.296;14.470;2023-01-28T05:21:29;97475.79;;;0.97;52.31
47080;BME280;33067;49.296;14.470;2023-01-28T05:23:54;97476.50;;;1.07;52.11
47080;BME280;33067;49.296;14.470;2023-01-28T05:26:20;97472.14;;;1.36;51.26
47080;BME280;33067;49.296;14.470;2023-01-28T05:28:46;97473.93;;;1.47;51.71
47080;BME280;33067;49.296;14.470;2023-01-28T05:31:12;97473.08;;;0.89;52.33
47080;BME280;33067;49.296;14.470;2023-01-28T05:33:37;97474.66;;;1.01;51.55
47080;BME280;33067;49.296;14.470;2023-01-28T05:36:03;97473.46;;;0.70;53.09
47080;BME280;33067;49.296;14.470;2023-01-28T05:38:28;97475.71;;;0.69;52.90
47080;BME280;33067;49.296;14.470;2023-01-28T05:40:53;97477.73;;;1.04;51.99
47080;BME280;33067;49.296;14.470;2023-01-28T05:43:19;97475.79;;;0.51;53.34
47080;BME280;33067;49.296;14.470;2023-01-28T05:45:45;97479.75;;;0.53;53.01
47080;BME280;33067;49.296;14.470;2023-01-28T05:48:09;97481.30;;;1.19;51.92
47080;BME280;33067;49.296;14.470;2023-01-28T05:50:35;97478.35;;;1.16;51.32
47080;BME280;33067;49.296;14.470;2023-01-28T05:53:00;97476.76;;;0.71;52.88
47080;BME280;33067;49.296;14.470;2023-01-28T05:55:25;97480.55;;;1.34;51.64
47080;BME280;33067;49.296;14.470;2023-01-28T05:57:51;97478.65;;;0.50;53.36
47080;BME280;33067;49.296;14.470;2023-01-28T06:00:17;97480.50;;;0.68;52.54
47080;BME280;33067;49.296;14.470;2023-01-28T06:02:41;97483.17;;;0.10;52.99
47080;BME280;33067;49.296;14.470;2023-01-28T06:05:07;97482.61;;;0.79;52.50
47080;BME280;33067;49.296;14.470;2023-01-28T06:07:32;97480.56;;;0.96;52.21
47080;BME280;33067;49.296;14.470;2023-01-28T06:09:57;97482.20;;;1.27;51.31
47080;BME280;33067;49.296;14.470;2023-01-28T06:12:23;97482.00;;;1.66;51.23
47080;BME280;33067;49.296;14.470;2023-01-28T06:14:48;97486.11;;;1.29;50.83
47080;BME280;33067;49.296;14.470;2023-01-28T06:17:14;97492.20;;;0.56;52.04
47080;BME280;33067;49.296;14.470;2023-01-28T06:19:40;97494.86;;;0.90;51.20
47080;BME280;33067;49.296;14.470;2023-01-28T06:22:06;97496.02;;;1.56;51.34
47080;BME280;33067;49.296;14.470;2023-01-28T06:24:31;97501.19;;;0.76;51.68
47080;BME280;33067;49.296;14.470;2023-01-28T06:26:57;97498.90;;;1.45;50.88
47080;BME280;33067;49.296;14.470;2023-01-28T06:29:22;97500.58;;;1.58;50.83
47080;BME280;33067;49.296;14.470;2023-01-28T06:31:48;97502.33;;;0.47;52.35
47080;BME280;33067;49.296;14.470;2023-01-28T06:34:13;97504.89;;;0.95;52.07
47080;BME280;33067;49.296;14.470;2023-01-28T06:36:38;97507.03;;;1.53;51.35
47080;BME280;33067;49.296;14.470;2023-01-28T06:39:04;97511.49;;;1.45;50.43
47080;BME280;33067;49.296;14.470;2023-01-28T06:41:30;97508.81;;;1.64;50.15
47080;BME280;33067;49.296;14.470;2023-01-28T06:43:56;97511.19;;;1.91;49.59
47080;BME280;33067;49.296;14.470;2023-01-28T06:46:21;97515.23;;;1.68;49.55
47080;BME280;33067;49.296;14.470;2023-01-28T06:48:46;97519.90;;;1.72;49.73
47080;BME280;33067;49.296;14.470;2023-01-28T06:51:12;97522.18;;;1.66;50.12
47080;BME280;33067;49.296;14.470;2023-01-28T06:53:38;97525.19;;;0.41;50.20
47080;BME280;33067;49.296;14.470;2023-01-28T06:56:04;97527.26;;;1.26;50.46
47080;BME280;33067;49.296;14.470;2023-01-28T06:58:29;97528.85;;;1.71;49.95
47080;BME280;33067;49.296;14.470;2023-01-28T07:00:54;97530.20;;;1.80;49.80
47080;BME280;33067;49.296;14.470;2023-01-28T07:03:20;97532.54;;;1.60;49.48
47080;BME280;33067;49.296;14.470;2023-01-28T07:05:46;97533.20;;;1.23;50.02
47080;BME280;33067;49.296;14.470;2023-01-28T07:08:11;97536.77;;;1.50;49.95
47080;BME280;33067;49.296;14.470;2023-01-28T07:10:37;97546.42;;;0.08;53.33
47080;BME280;33067;49.296;14.470;2023-01-28T07:13:02;97546.27;;;1.58;51.11
47080;BME280;33067;49.296;14.470;2023-01-28T07:15:27;97548.90;;;2.02;50.42
47080;BME280;33067;49.296;14.470;2023-01-28T07:17:53;97549.88;;;1.30;50.45
47080;BME280;33067;49.296;14.470;2023-01-28T07:20:19;97555.73;;;1.52;51.19
47080;BME280;33067;49.296;14.470;2023-01-28T07:22:44;97554.25;;;1.81;49.62
47080;BME280;33067;49.296;14.470;2023-01-28T07:25:10;97556.50;;;1.48;49.91
47080;BME280;33067;49.296;14.470;2023-01-28T07:27:34;97559.90;;;1.74;49.39
47080;BME280;33067;49.296;14.470;2023-01-28T07:30:00;97557.27;;;1.17;50.41
47080;BME280;33067;49.296;14.470;2023-01-28T07:32:26;97563.72;;;0.92;51.11
47080;BME280;33067;49.296;14.470;2023-01-28T07:34:50;97564.10;;;0.96;51.63
47080;BME280;33067;49.296;14.470;2023-01-28T07:37:16;97570.60;;;0.80;51.99
47080;BME280;33067;49.296;14.470;2023-01-28T07:39:42;97568.81;;;1.70;50.39
47080;BME280;33067;49.296;14.470;2023-01-28T07:42:07;97573.58;;;0.32;51.80
47080;BME280;33067;49.296;14.470;2023-01-28T07:44:33;97572.15;;;1.03;51.15
47080;BME280;33067;49.296;14.470;2023-01-28T07:46:59;97573.02;;;0.87;51.33
47080;BME280;33067;49.296;14.470;2023-01-28T07:49:25;97575.09;;;1.29;50.76
47080;BME280;33067;49.296;14.470;2023-01-28T07:51:50;97575.81;;;1.27;51.25
47080;BME280;33067;49.296;14.470;2023-01-28T07:54:15;97582.05;;;0.74;52.25
47080;BME280;33067;49.296;14.470;2023-01-28T07:56:41;97581.90;;;1.61;50.38
47080;BME280;33067;49.296;14.470;2023-01-28T07:59:06;97585.60;;;1.22;50.49
47080;BME280;33067;49.296;14.470;2023-01-28T08:01:32;97588.21;;;1.56;50.06
47080;BME280;33067;49.296;14.470;2023-01-28T08:03:58;97588.88;;;2.31;49.33
47080;BME280;33067;49.296;14.470;2023-01-28T08:06:23;97593.14;;;2.08;49.52
47080;BME280;33067;49.296;14.470;2023-01-28T08:08:49;97596.74;;;2.31;48.97
47080;BME280;33067;49.296;14.470;2023-01-28T08:11:14;97596.99;;;2.14;49.06
47080;BME280;33067;49.296;14.470;2023-01-28T08:13:39;97600.03;;;1.92;49.32
47080;BME280;33067;49.296;14.470;2023-01-28T08:16:06;97599.96;;;1.91;49.34
47080;BME280;33067;49.296;14.470;2023-01-28T08:18:31;97599.78;;;2.56;48.26
47080;BME280;33067;49.296;14.470;2023-01-28T08:20:57;97602.52;;;2.45;48.14
47080;BME280;33067;49.296;14.470;2023-01-28T08:23:21;97604.92;;;2.70;48.50
47080;BME280;33067;49.296;14.470;2023-01-28T08:25:47;97603.94;;;3.11;47.85
47080;BME280;33067;49.296;14.470;2023-01-28T08:28:13;97606.37;;;2.55;47.62
47080;BME280;33067;49.296;14.470;2023-01-28T08:30:38;97609.84;;;2.42;47.76
47080;BME280;33067;49.296;14.470;2023-01-28T08:33:03;97606.84;;;2.69;47.43
47080;BME280;33067;49.296;14.470;2023-01-28T08:35:28;97608.57;;;3.12;47.11
47080;BME280;33067;49.296;14.470;2023-01-28T08:37:54;97607.69;;;2.77;47.28
47080;BME280;33067;49.296;14.470;2023-01-28T08:40:19;97605.08;;;2.62;47.45
47080;BME280;33067;49.296;14.470;2023-01-28T08:42:46;97605.05;;;2.94;47.18
47080;BME280;33067;49.296;14.470;2023-01-28T08:45:10;97607.90;;;3.49;46.68
47080;BME280;33067;49.296;14.470;2023-01-28T08:47:34;97609.64;;;3.41;46.94
47080;BME280;33067;49.296;14.470;2023-01-28T08:50:00;97609.63;;;2.97;47.18
47080;BME280;33067;49.296;14.470;2023-01-28T08:52:25;97609.13;;;3.23;46.89
47080;BME280;33067;49.296;14.470;2023-01-28T08:54:51;97610.71;;;2.87;47.27
47080;BME280;33067;49.296;14.470;2023-01-28T08:57:17;97613.64;;;2.77;47.00
47080;BME280;33067;49.296;14.470;2023-01-28T08:59:42;97616.64;;;2.65;47.59
47080;BME280;33067;49.296;14.470;2023-01-28T09:02:08;97619.01;;;2.23;47.80
47080;BME280;33067;49.296;14.470;2023-01-28T09:04:33;97619.16;;;2.06;48.66
47080;BME280;33067;49.296;14.470;2023-01-28T09:06:58;97617.80;;;2.27;48.34
47080;BME280;33067;49.296;14.470;2023-01-28T09:09:23;97617.57;;;2.04;48.39
47080;BME280;33067;49.296;14.470;2023-01-28T09:11:49;97617.27;;;2.32;48.46
47080;BME280;33067;49.296;14.470;2023-01-28T09:14:14;97619.71;;;1.53;49.79
47080;BME280;33067;49.296;14.470;2023-01-28T09:16:40;97623.36;;;1.83;49.61
47080;BME280;33067;49.296;14.470;2023-01-28T09:19:05;97626.29;;;1.23;50.94
47080;BME280;33067;49.296;14.470;2023-01-28T09:21:31;97632.69;;;0.50;52.47
47080;BME280;33067;49.296;14.470;2023-01-28T09:23:56;97626.07;;;1.37;51.03
47080;BME280;33067;49.296;14.470;2023-01-28T09:26:22;97628.43;;;1.78;50.42
47080;BME280;33067;49.296;14.470;2023-01-28T09:28:48;97629.86;;;1.82;49.85
47080;BME280;33067;49.296;14.470;2023-01-28T09:31:14;97631.16;;;2.12;49.77
47080;BME280;33067;49.296;14.470;2023-01-28T09:33:40;97631.60;;;1.73;50.40
47080;BME280;33067;49.296;14.470;2023-01-28T09:36:07;97639.04;;;0.83;52.02
47080;BME280;33067;49.296;14.470;2023-01-28T09:38:31;97634.42;;;1.32;51.65
47080;BME280;33067;49.296;14.470;2023-01-28T09:40:57;97638.94;;;1.62;51.13
47080;BME280;33067;49.296;14.470;2023-01-28T09:43:35;97643.70;;;1.69;51.18
47080;BME280;33067;49.296;14.470;2023-01-28T09:45:49;97648.25;;;1.08;51.84
47080;BME280;33067;49.296;14.470;2023-01-28T09:48:16;97645.33;;;1.50;51.71
47080;BME280;33067;49.296;14.470;2023-01-28T09:50:42;97643.49;;;1.91;50.55
47080;BME280;33067;49.296;14.470;2023-01-28T09:53:09;97652.36;;;0.93;52.15
47080;BME280;33067;49.296;14.470;2023-01-28T09:55:32;97643.64;;;1.62;50.88
47080;BME280;33067;49.296;14.470;2023-01-28T09:57:54;97643.72;;;1.26;51.61
47080;BME280;33067;49.296;14.470;2023-01-28T10:00:22;97637.75;;;1.44;51.31
47080;BME280;33067;49.296;14.470;2023-01-28T10:02:57;97640.02;;;1.80;50.74
47080;BME280;33067;49.296;14.470;2023-01-28T10:05:18;97639.04;;;1.98;50.54
47080;BME280;33067;49.296;14.470;2023-01-28T10:07:43;97638.62;;;2.33;50.23
47080;BME280;33067;49.296;14.470;2023-01-28T10:10:07;97640.64;;;2.48;49.84
47080;BME280;33067;49.296;14.470;2023-01-28T10:12:38;97639.62;;;1.88;51.13
47080;BME280;33067;49.296;14.470;2023-01-28T10:15:03;97640.00;;;2.17;50.42
47080;BME280;33067;49.296;14.470;2023-01-28T10:17:23;97641.78;;;2.27;50.49
47080;BME280;33067;49.296;14.470;2023-01-28T10:19:48;97638.48;;;1.38;51.54
47080;BME280;33067;49.296;14.470;2023-01-28T10:22:14;97638.99;;;1.53;52.15
47080;BME280;33067;49.296;14.470;2023-01-28T10:24:37;97636.33;;;1.60;51.78
47080;BME280;33067;49.296;14.470;2023-01-28T10:27:01;97641.25;;;0.70;53.33
47080;BME280;33067;49.296;14.470;2023-01-28T10:29:28;97644.75;;;0.13;55.55
47080;BME280;33067;49.296;14.470;2023-01-28T10:31:52;97645.38;;;-0.06;56.00
47080;BME280;33067;49.296;14.470;2023-01-28T10:34:16;97643.51;;;-0.14;56.32
47080;BME280;33067;49.296;14.470;2023-01-28T10:36:42;97647.66;;;0.49;55.38
47080;BME280;33067;49.296;14.470;2023-01-28T10:39:07;97643.98;;;-0.53;57.47
47080;BME280;33067;49.296;14.470;2023-01-28T10:41:31;97643.22;;;0.52;55.22
47080;BME280;33067;49.296;14.470;2023-01-28T10:43:56;97645.38;;;0.31;55.56
47080;BME280;33067;49.296;14.470;2023-01-28T10:46:27;97650.70;;;0.90;54.29
47080;BME280;33067;49.296;14.470;2023-01-28T10:48:54;97650.19;;;0.23;54.87
47080;BME280;33067;49.296;14.470;2023-01-28T10:51:13;97651.52;;;-0.60;57.96
47080;BME280;33067;49.296;14.470;2023-01-28T10:53:40;97650.75;;;-0.66;58.37
47080;BME280;33067;49.296;14.470;2023-01-28T10:56:06;97652.18;;;-0.27;56.86
47080;BME280;33067;49.296;14.470;2023-01-28T10:58:32;97656.10;;;0.54;55.49
47080;BME280;33067;49.296;14.470;2023-01-28T11:00:58;97652.40;;;-0.02;55.59
47080;BME280;33067;49.296;14.470;2023-01-28T11:03:22;97656.77;;;-0.63;56.67
47080;BME280;33067;49.296;14.470;2023-01-28T11:05:50;97654.79;;;-0.21;55.23
47080;BME280;33067;49.296;14.470;2023-01-28T11:08:14;97655.55;;;-0.04;54.92
47080;BME280;33067;49.296;14.470;2023-01-28T11:10:37;97659.72;;;0.72;53.36
47080;BME280;33067;49.296;14.470;2023-01-28T11:13:04;97657.71;;;-0.91;57.09
47080;BME280;33067;49.296;14.470;2023-01-28T11:15:28;97655.22;;;-0.43;56.10
47080;BME280;33067;49.296;14.470;2023-01-28T11:17:56;97661.14;;;0.47;54.07
47080;BME280;33067;49.296;14.470;2023-01-28T11:20:21;97656.72;;;-0.05;55.52
47080;BME280;33067;49.296;14.470;2023-01-28T11:22:44;97659.11;;;0.00;56.13
47080;BME280;33067;49.296;14.470;2023-01-28T11:25:16;97659.54;;;-0.27;55.64
47080;BME280;33067;49.296;14.470;2023-01-28T11:27:35;97663.28;;;-0.10;56.01
47080;BME280;33067;49.296;14.470;2023-01-28T11:30:02;97665.91;;;0.30;54.05
47080;BME280;33067;49.296;14.470;2023-01-28T11:32:26;97661.90;;;-0.36;55.15
47080;BME280;33067;49.296;14.470;2023-01-28T11:34:53;97668.81;;;-0.33;56.43
47080;BME280;33067;49.296;14.470;2023-01-28T11:37:20;97666.49;;;-0.84;57.91
47080;BME280;33067;49.296;14.470;2023-01-28T11:39:42;97667.84;;;-1.18;57.98
47080;BME280;33067;49.296;14.470;2023-01-28T11:42:12;97666.67;;;-1.29;58.96
47080;BME280;33067;49.296;14.470;2023-01-28T11:44:33;97665.23;;;-1.19;58.83
47080;BME280;33067;49.296;14.470;2023-01-28T11:47:11;97663.37;;;-0.17;55.91
47080;BME280;33067;49.296;14.470;2023-01-28T11:49:33;97662.17;;;0.16;54.85
47080;BME280;33067;49.296;14.470;2023-01-28T11:51:57;97664.70;;;0.07;55.03
47080;BME280;33067;49.296;14.470;2023-01-28T11:54:26;97666.11;;;-0.20;55.68
47080;BME280;33067;49.296;14.470;2023-01-28T11:56:48;97665.61;;;0.28;54.61
47080;BME280;33067;49.296;14.470;2023-01-28T11:59:19;97669.77;;;0.20;54.45
47080;BME280;33067;49.296;14.470;2023-01-28T12:01:39;97664.55;;;-0.64;55.92
47080;BME280;33067;49.296;14.470;2023-01-28T12:04:13;97661.47;;;-0.50;56.48
47080;BME280;33067;49.296;14.470;2023-01-28T12:06:34;97658.74;;;-0.51;56.87
47080;BME280;33067;49.296;14.470;2023-01-28T12:08:55;97664.48;;;-0.22;56.32
47080;BME280;33067;49.296;14.470;2023-01-28T12:11:23;97669.03;;;-0.98;57.46
47080;BME280;33067;49.296;14.470;2023-01-28T12:13:49;97663.80;;;-0.36;56.00
47080;BME280;33067;49.296;14.470;2023-01-28T12:16:22;97665.07;;;-0.07;56.07
47080;BME280;33067;49.296;14.470;2023-01-28T12:21:02;97661.07;;;0.08;55.42
47080;BME280;33067;49.296;14.470;2023-01-28T12:23:32;97665.43;;;0.34;54.02
47080;BME280;33067;49.296;14.470;2023-01-28T12:25:56;97665.03;;;-0.81;56.37
47080;BME280;33067;49.296;14.470;2023-01-28T12:28:17;97667.44;;;-0.31;56.20
47080;BME280;33067;49.296;14.470;2023-01-28T12:30:49;97669.70;;;-0.91;57.44
47080;BME280;33067;49.296;14.470;2023-01-28T12:33:26;97668.36;;;-1.40;57.95
47080;BME280;33067;49.296;14.470;2023-01-28T12:35:41;97667.19;;;-0.42;56.05
47080;BME280;33067;49.296;14.470;2023-01-28T12:37:59;97668.84;;;0.33;53.87
47080;BME280;33067;49.296;14.470;2023-01-28T12:40:35;97670.04;;;0.19;53.76
47080;BME280;33067;49.296;14.470;2023-01-28T12:42:49;97670.50;;;0.53;52.86
47080;BME280;33067;49.296;14.470;2023-01-28T12:45:15;97667.73;;;1.13;51.99
47080;BME280;33067;49.296;14.470;2023-01-28T12:47:36;97670.41;;;0.67;53.08
47080;BME280;33067;49.296;14.470;2023-01-28T12:50:03;97672.95;;;0.98;52.41
47080;BME280;33067;49.296;14.470;2023-01-28T12:52:29;97674.36;;;0.37;52.92
47080;BME280;33067;49.296;14.470;2023-01-28T12:54:56;97671.18;;;-0.25;53.91
47080;BME280;33067;49.296;14.470;2023-01-28T12:57:22;97670.73;;;-0.43;54.38